createdAt,value
2018-04-07T00:00:01.369Z,984.65
2018-04-07T00:01:08.208Z,984.68
2018-04-07T00:02:15.016Z,984.64
2018-04-07T00:03:21.928Z,984.59
2018-04-07T00:04:28.680Z,984.61
2018-04-07T00:05:35.472Z,984.64
2018-04-07T00:06:42.277Z,984.63
2018-04-07T00:07:49.025Z,984.59
2018-04-07T00:08:55.780Z,984.59
2018-04-07T00:10:02.603Z,984.57
2018-04-07T00:11:09.355Z,984.61
2018-04-07T00:12:16.094Z,984.57
2018-04-07T00:13:22.816Z,984.57
2018-04-07T00:14:29.640Z,984.52
2018-04-07T00:15:36.368Z,984.53
2018-04-07T00:16:43.091Z,984.53
2018-04-07T00:17:49.872Z,984.50
2018-04-07T00:18:56.709Z,984.57
2018-04-07T00:20:03.484Z,984.53
2018-04-07T00:21:10.320Z,984.51
2018-04-07T00:22:17.153Z,984.52
2018-04-07T00:23:24.013Z,984.47
2018-04-07T00:24:30.936Z,984.53
2018-04-07T00:25:37.713Z,984.50
2018-04-07T00:26:44.452Z,984.48
2018-04-07T00:27:51.196Z,984.43
2018-04-07T00:28:58.276Z,984.45
2018-04-07T00:30:05.116Z,984.48
2018-04-07T00:31:11.938Z,984.47
2018-04-07T00:32:18.711Z,984.49
2018-04-07T00:33:25.460Z,984.52
2018-04-07T00:34:32.244Z,984.46
2018-04-07T00:35:39.032Z,984.42
2018-04-07T00:36:45.795Z,984.42
2018-04-07T00:37:52.768Z,984.38
2018-04-07T00:38:59.572Z,984.41
2018-04-07T00:40:06.325Z,984.38
2018-04-07T00:41:13.135Z,984.42
2018-04-07T00:42:19.867Z,984.37
2018-04-07T00:43:26.628Z,984.44
2018-04-07T00:44:33.811Z,984.39
2018-04-07T00:45:40.644Z,984.44
2018-04-07T00:46:47.403Z,984.36
2018-04-07T00:47:54.163Z,984.32
2018-04-07T00:49:00.944Z,984.34
2018-04-07T00:50:07.795Z,984.44
2018-04-07T00:51:14.540Z,984.36
2018-04-07T00:52:21.296Z,984.35
2018-04-07T00:53:28.257Z,984.43
2018-04-07T00:54:35.092Z,984.38
2018-04-07T00:55:41.911Z,984.34
2018-04-07T00:56:48.798Z,984.43
2018-04-07T00:57:55.532Z,984.35
2018-04-07T00:59:02.309Z,984.36
2018-04-07T01:00:09.152Z,984.32
2018-04-07T01:01:15.919Z,984.39
2018-04-07T01:02:22.712Z,984.34
2018-04-07T01:03:29.448Z,984.33
2018-04-07T01:04:36.256Z,984.29
2018-04-07T01:05:43.000Z,984.30
2018-04-07T01:06:49.800Z,984.36
2018-04-07T01:07:56.535Z,984.33
2018-04-07T01:09:03.367Z,984.33
2018-04-07T01:10:10.178Z,984.41
2018-04-07T01:11:16.949Z,984.36
2018-04-07T01:12:23.704Z,984.37
2018-04-07T01:13:30.464Z,984.39
2018-04-07T01:14:37.212Z,984.35
2018-04-07T01:15:43.952Z,984.35
2018-04-07T01:16:50.745Z,984.35
2018-04-07T01:17:57.584Z,984.35
2018-04-07T01:19:04.291Z,984.38
2018-04-07T01:20:11.016Z,984.32
2018-04-07T01:21:17.731Z,984.29
2018-04-07T01:22:24.748Z,984.37
2018-04-07T01:23:31.506Z,984.35
2018-04-07T01:24:38.228Z,984.31
2018-04-07T01:25:44.961Z,984.30
2018-04-07T01:26:51.672Z,984.29
2018-04-07T01:27:58.599Z,984.18
2018-04-07T01:29:05.420Z,984.24
2018-04-07T01:30:12.260Z,984.22
2018-04-07T01:31:18.984Z,984.30
2018-04-07T01:32:25.737Z,984.27
2018-04-07T01:33:32.456Z,984.25
2018-04-07T01:34:39.176Z,984.20
2018-04-07T01:35:46.019Z,984.15
2018-04-07T01:36:52.779Z,984.19
2018-04-07T01:37:59.544Z,984.17
2018-04-07T01:39:06.273Z,984.07
2018-04-07T01:40:12.984Z,984.17
2018-04-07T01:41:19.768Z,984.21
2018-04-07T01:42:26.480Z,984.19
2018-04-07T01:43:33.308Z,984.17
2018-04-07T01:44:40.013Z,984.09
2018-04-07T01:45:46.879Z,984.12
2018-04-07T01:46:53.567Z,984.14
2018-04-07T01:48:00.304Z,984.17
2018-04-07T01:49:07.080Z,984.10
2018-04-07T01:50:13.936Z,984.19
2018-04-07T01:51:20.654Z,984.07
2018-04-07T01:52:27.410Z,984.08
2018-04-07T01:53:34.218Z,984.07
2018-04-07T01:54:41.120Z,984.11
2018-04-07T01:55:47.933Z,984.12
2018-04-07T01:56:55.095Z,984.18
2018-04-07T01:58:01.779Z,984.15
2018-04-07T01:59:08.549Z,984.16
2018-04-07T02:00:15.305Z,984.11
2018-04-07T02:01:22.012Z,984.17
2018-04-07T02:02:28.733Z,984.08
2018-04-07T02:03:35.456Z,984.06
2018-04-07T02:04:42.228Z,984.15
2018-04-07T02:05:49.081Z,984.14
2018-04-07T02:06:55.812Z,984.11
2018-04-07T02:08:02.564Z,984.14
2018-04-07T02:09:09.345Z,984.22
2018-04-07T02:10:16.161Z,984.20
2018-04-07T02:11:22.939Z,984.13
2018-04-07T02:12:29.656Z,984.20
2018-04-07T02:13:36.392Z,984.18
2018-04-07T02:14:43.224Z,984.21
2018-04-07T02:15:49.984Z,984.18
2018-04-07T02:16:56.732Z,984.25
2018-04-07T02:18:03.465Z,984.21
2018-04-07T02:19:10.245Z,984.27
2018-04-07T02:20:17.017Z,984.20
2018-04-07T02:21:23.756Z,984.24
2018-04-07T02:22:30.484Z,984.21
2018-04-07T02:23:37.224Z,984.23
2018-04-07T02:24:44.009Z,984.29
2018-04-07T02:25:50.744Z,984.24
2018-04-07T02:26:57.463Z,984.20
2018-04-07T02:28:04.204Z,984.23
2018-04-07T02:29:10.911Z,984.14
2018-04-07T02:30:17.744Z,984.19
2018-04-07T02:31:24.489Z,984.11
2018-04-07T02:32:31.229Z,984.14
2018-04-07T02:33:37.996Z,984.18
2018-04-07T02:34:44.821Z,984.19
2018-04-07T02:35:51.560Z,984.13
2018-04-07T02:36:58.305Z,984.13
2018-04-07T02:38:05.028Z,984.20
2018-04-07T02:39:11.757Z,984.15
2018-04-07T02:40:18.552Z,984.13
2018-04-07T02:41:25.309Z,984.16
2018-04-07T02:42:32.077Z,984.13
2018-04-07T02:43:38.800Z,984.23
2018-04-07T02:44:45.683Z,984.16
2018-04-07T02:45:52.428Z,984.23
2018-04-07T02:46:59.182Z,984.15
2018-04-07T02:48:06.066Z,984.14
2018-04-07T02:49:12.816Z,984.14
2018-04-07T02:50:19.676Z,984.15
2018-04-07T02:51:26.496Z,984.21
2018-04-07T02:52:33.424Z,984.19
2018-04-07T02:53:40.273Z,984.22
2018-04-07T02:54:47.009Z,984.22
2018-04-07T02:55:53.756Z,984.23
2018-04-07T02:57:00.507Z,984.24
2018-04-07T02:58:07.452Z,984.17
2018-04-07T02:59:14.191Z,984.17
2018-04-07T03:00:20.917Z,984.19
2018-04-07T03:01:27.677Z,984.23
2018-04-07T03:02:34.425Z,984.20
2018-04-07T03:03:41.144Z,984.12
2018-04-07T03:04:47.905Z,984.16
2018-04-07T03:05:54.732Z,984.12
2018-04-07T03:07:01.501Z,984.07
2018-04-07T03:08:08.471Z,984.08
2018-04-07T03:09:15.285Z,984.06
2018-04-07T03:10:22.044Z,984.10
2018-04-07T03:11:29.144Z,984.07
2018-04-07T03:12:35.992Z,984.10
2018-04-07T03:13:42.736Z,984.11
2018-04-07T03:14:49.524Z,984.02
2018-04-07T03:15:56.260Z,983.99
2018-04-07T03:17:03.000Z,984.14
2018-04-07T03:18:10.016Z,984.05
2018-04-07T03:19:16.799Z,984.02
2018-04-07T03:20:23.530Z,984.05
2018-04-07T03:21:30.600Z,984.00
2018-04-07T03:22:37.412Z,984.08
2018-04-07T03:23:44.198Z,984.00
2018-04-07T03:24:50.908Z,984.04
2018-04-07T03:25:57.661Z,984.01
2018-04-07T03:27:04.376Z,983.97
2018-04-07T03:28:11.258Z,984.01
2018-04-07T03:29:18.011Z,984.02
2018-04-07T03:30:24.737Z,983.91
2018-04-07T03:31:31.713Z,983.97
2018-04-07T03:32:38.455Z,983.94
2018-04-07T03:33:45.214Z,984.00
2018-04-07T03:34:51.954Z,984.01
2018-04-07T03:35:58.748Z,984.01
2018-04-07T03:37:05.512Z,983.99
2018-04-07T03:38:12.561Z,983.87
2018-04-07T03:39:19.304Z,983.95
2018-04-07T03:40:26.030Z,983.98
2018-04-07T03:41:32.780Z,984.01
2018-04-07T03:42:39.511Z,983.92
2018-04-07T03:43:46.312Z,984.00
2018-04-07T03:44:53.041Z,983.96
2018-04-07T03:45:59.771Z,983.95
2018-04-07T03:47:06.569Z,983.99
2018-04-07T03:48:13.372Z,983.86
2018-04-07T03:49:20.219Z,984.02
2018-04-07T03:50:27.018Z,983.97
2018-04-07T03:51:33.822Z,983.97
2018-04-07T03:52:40.529Z,984.02
2018-04-07T03:53:47.314Z,984.03
2018-04-07T03:54:54.030Z,984.05
2018-04-07T03:56:00.773Z,984.05
2018-04-07T03:57:07.572Z,984.04
2018-04-07T03:58:14.336Z,984.02
2018-04-07T03:59:21.148Z,983.96
2018-04-07T04:00:28.008Z,983.98
2018-04-07T04:01:34.796Z,984.01
2018-04-07T04:02:41.560Z,983.98
2018-04-07T04:03:48.348Z,983.95
2018-04-07T04:04:55.114Z,983.96
2018-04-07T04:06:01.885Z,983.98
2018-04-07T04:07:08.663Z,983.96
2018-04-07T04:08:15.536Z,984.00
2018-04-07T04:09:22.307Z,983.94
2018-04-07T04:10:29.064Z,983.95
2018-04-07T04:11:35.880Z,983.99
2018-04-07T04:12:42.628Z,983.98
2018-04-07T04:13:49.404Z,983.99
2018-04-07T04:14:56.175Z,983.99
2018-04-07T04:16:02.892Z,983.95
2018-04-07T04:17:09.740Z,984.06
2018-04-07T04:18:16.568Z,984.01
2018-04-07T04:19:23.422Z,984.00
2018-04-07T04:20:30.208Z,983.99
2018-04-07T04:21:36.908Z,984.04
2018-04-07T04:22:43.647Z,983.96
2018-04-07T04:23:50.408Z,983.82
2018-04-07T04:24:57.160Z,983.91
2018-04-07T04:26:03.985Z,983.92
2018-04-07T04:27:10.733Z,983.89
2018-04-07T04:28:17.477Z,983.83
2018-04-07T04:29:24.220Z,983.84
2018-04-07T04:30:30.948Z,983.90
2018-04-07T04:31:37.740Z,983.86
2018-04-07T04:32:44.457Z,983.85
2018-04-07T04:33:51.190Z,983.87
2018-04-07T04:34:57.964Z,983.89
2018-04-07T04:36:04.673Z,983.81
2018-04-07T04:37:11.484Z,983.86
2018-04-07T04:38:18.197Z,983.81
2018-04-07T04:39:24.957Z,983.72
2018-04-07T04:40:31.836Z,983.76
2018-04-07T04:41:38.579Z,983.67
2018-04-07T04:42:45.352Z,983.61
2018-04-07T04:43:52.089Z,983.67
2018-04-07T04:44:58.825Z,983.68
2018-04-07T04:46:05.625Z,983.59
2018-04-07T04:47:12.340Z,983.63
2018-04-07T04:48:19.079Z,983.65
2018-04-07T04:49:25.844Z,983.65
2018-04-07T04:50:32.591Z,983.66
2018-04-07T04:51:39.428Z,983.70
2018-04-07T04:52:46.145Z,983.69
2018-04-07T04:53:52.879Z,983.64
2018-04-07T04:54:59.646Z,983.70
2018-04-07T04:56:06.368Z,983.78
2018-04-07T04:57:13.143Z,983.76
2018-04-07T04:58:19.972Z,983.80
2018-04-07T04:59:26.892Z,983.71
2018-04-07T05:00:33.642Z,983.73
2018-04-07T05:01:40.417Z,983.83
2018-04-07T05:02:47.132Z,983.73
2018-04-07T05:03:53.872Z,983.76
2018-04-07T05:05:00.857Z,983.72
2018-04-07T05:06:07.621Z,983.72
2018-04-07T05:07:14.448Z,983.78
2018-04-07T05:08:21.165Z,983.72
2018-04-07T05:09:27.902Z,983.87
2018-04-07T05:10:34.736Z,983.81
2018-04-07T05:11:41.839Z,983.81
2018-04-07T05:12:48.793Z,983.85
2018-04-07T05:13:55.520Z,983.85
2018-04-07T05:15:02.340Z,983.91
2018-04-07T05:16:09.147Z,983.85
2018-04-07T05:17:15.925Z,983.91
2018-04-07T05:18:22.707Z,983.87
2018-04-07T05:19:29.556Z,983.94
2018-04-07T05:20:36.357Z,983.91
2018-04-07T05:21:43.118Z,983.92
2018-04-07T05:22:49.812Z,983.90
2018-04-07T05:23:56.548Z,983.83
2018-04-07T05:25:03.347Z,983.85
2018-04-07T05:26:10.079Z,983.83
2018-04-07T05:27:16.860Z,983.79
2018-04-07T05:28:23.800Z,983.77
2018-04-07T05:29:30.532Z,983.90
2018-04-07T05:30:37.272Z,983.81
2018-04-07T05:31:44.096Z,983.90
2018-04-07T05:32:50.892Z,983.91
2018-04-07T05:33:57.629Z,983.91
2018-04-07T05:35:04.408Z,983.87
2018-04-07T05:36:11.156Z,983.90
2018-04-07T05:37:17.894Z,983.90
2018-04-07T05:38:24.631Z,983.79
2018-04-07T05:39:31.392Z,983.87
2018-04-07T05:40:38.099Z,983.84
2018-04-07T05:41:44.807Z,983.92
2018-04-07T05:42:51.548Z,983.97
2018-04-07T05:43:58.270Z,983.97
2018-04-07T05:45:05.059Z,983.97
2018-04-07T05:46:11.744Z,983.86
2018-04-07T05:47:18.512Z,983.94
2018-04-07T05:48:25.232Z,983.94
2018-04-07T05:49:31.964Z,983.96
2018-04-07T05:50:38.800Z,983.91
2018-04-07T05:51:45.532Z,983.90
2018-04-07T05:52:52.280Z,983.98
2018-04-07T05:53:58.995Z,983.89
2018-04-07T05:55:05.709Z,983.84
2018-04-07T05:56:12.407Z,983.87
2018-04-07T05:57:19.164Z,983.89
2018-04-07T05:58:25.888Z,983.88
2018-04-07T05:59:32.585Z,983.89
2018-04-07T06:00:39.363Z,983.90
2018-04-07T06:01:46.076Z,983.89
2018-04-07T06:02:52.832Z,983.92
2018-04-07T06:03:59.632Z,983.91
2018-04-07T06:05:06.333Z,983.93
2018-04-07T06:06:13.108Z,983.93
2018-04-07T06:07:19.884Z,983.96
2018-04-07T06:08:26.836Z,983.92
2018-04-07T06:09:33.582Z,983.97
2018-04-07T06:10:40.379Z,983.96
2018-04-07T06:11:47.249Z,983.91
2018-04-07T06:12:54.000Z,983.93
2018-04-07T06:14:00.737Z,983.80
2018-04-07T06:15:07.541Z,983.91
2018-04-07T06:16:14.412Z,983.92
2018-04-07T06:17:21.129Z,983.92
2018-04-07T06:18:28.009Z,983.88
2018-04-07T06:19:34.875Z,983.91
2018-04-07T06:20:41.594Z,983.85
2018-04-07T06:21:48.381Z,983.91
2018-04-07T06:22:55.223Z,983.89
2018-04-07T06:24:01.945Z,983.96
2018-04-07T06:25:08.705Z,983.91
2018-04-07T06:26:15.424Z,983.94
2018-04-07T06:27:22.132Z,983.99
2018-04-07T06:28:28.824Z,983.91
2018-04-07T06:29:35.660Z,983.93
2018-04-07T06:30:42.465Z,984.02
2018-04-07T06:31:49.185Z,983.95
2018-04-07T06:32:55.911Z,984.01
2018-04-07T06:34:02.785Z,984.06
2018-04-07T06:35:09.528Z,984.04
2018-04-07T06:36:16.281Z,984.02
2018-04-07T06:37:23.009Z,984.05
2018-04-07T06:38:29.728Z,984.12
2018-04-07T06:39:36.528Z,984.07
2018-04-07T06:40:43.252Z,984.09
2018-04-07T06:41:50.011Z,984.08
2018-04-07T06:42:56.971Z,984.01
2018-04-07T06:44:03.857Z,984.05
2018-04-07T06:45:10.605Z,984.01
2018-04-07T06:46:17.456Z,983.98
2018-04-07T06:47:24.244Z,984.02
2018-04-07T06:48:30.984Z,984.00
2018-04-07T06:49:37.761Z,983.93
2018-04-07T06:50:44.559Z,983.97
2018-04-07T06:51:51.379Z,984.01
2018-04-07T06:52:58.133Z,983.99
2018-04-07T06:54:04.870Z,983.96
2018-04-07T06:55:11.679Z,983.98
2018-04-07T06:56:18.403Z,983.94
2018-04-07T06:57:25.156Z,983.88
2018-04-07T06:58:31.912Z,983.93
2018-04-07T06:59:38.769Z,983.86
2018-04-07T07:00:45.530Z,983.86
2018-04-07T07:01:52.240Z,983.83
2018-04-07T07:02:59.012Z,983.95
2018-04-07T07:04:05.871Z,983.85
2018-04-07T07:05:12.640Z,983.87
2018-04-07T07:06:19.404Z,983.93
2018-04-07T07:07:26.121Z,983.83
2018-04-07T07:08:32.924Z,983.86
2018-04-07T07:09:39.655Z,983.85
2018-04-07T07:10:46.532Z,983.87
2018-04-07T07:11:53.259Z,983.95
2018-04-07T07:13:00.177Z,983.87
2018-04-07T07:14:06.963Z,983.90
2018-04-07T07:15:13.762Z,983.90
2018-04-07T07:16:20.538Z,983.93
2018-04-07T07:17:27.317Z,983.87
2018-04-07T07:18:34.076Z,983.79
2018-04-07T07:19:40.964Z,983.72
2018-04-07T07:20:47.684Z,983.80
2018-04-07T07:21:54.508Z,983.80
2018-04-07T07:23:01.231Z,983.82
2018-04-07T07:24:08.106Z,983.88
2018-04-07T07:25:14.892Z,983.95
2018-04-07T07:26:21.670Z,983.97
2018-04-07T07:27:28.584Z,983.96
2018-04-07T07:28:35.369Z,983.95
2018-04-07T07:29:42.186Z,983.99
2018-04-07T07:30:48.955Z,984.05
2018-04-07T07:31:55.764Z,984.00
2018-04-07T07:33:02.479Z,983.97
2018-04-07T07:34:09.204Z,983.94
2018-04-07T07:35:16.053Z,983.95
2018-04-07T07:36:22.775Z,984.01
2018-04-07T07:37:29.520Z,983.97
2018-04-07T07:38:36.345Z,983.90
2018-04-07T07:39:43.139Z,983.86
2018-04-07T07:40:49.845Z,983.85
2018-04-07T07:41:56.581Z,983.89
2018-04-07T07:43:03.316Z,983.80
2018-04-07T07:44:10.016Z,983.78
2018-04-07T07:45:16.858Z,983.74
2018-04-07T07:46:23.620Z,983.81
2018-04-07T07:47:30.381Z,983.85
2018-04-07T07:48:37.091Z,983.86
2018-04-07T07:49:43.916Z,983.82
2018-04-07T07:50:50.688Z,983.81
2018-04-07T07:51:57.448Z,983.89
2018-04-07T07:53:04.260Z,983.86
2018-04-07T07:54:10.981Z,983.85
2018-04-07T07:55:17.723Z,983.87
2018-04-07T07:56:24.436Z,983.89
2018-04-07T07:57:31.192Z,983.90
2018-04-07T07:58:37.913Z,983.93
2018-04-07T07:59:44.780Z,984.02
2018-04-07T08:00:51.528Z,983.90
2018-04-07T08:01:58.239Z,983.99
2018-04-07T08:03:04.996Z,984.03
2018-04-07T08:04:11.780Z,983.97
2018-04-07T08:05:18.508Z,984.02
2018-04-07T08:06:25.344Z,983.96
2018-04-07T08:07:32.404Z,983.96
2018-04-07T08:08:39.139Z,983.89
2018-04-07T08:09:45.885Z,983.90
2018-04-07T08:10:52.684Z,983.93
2018-04-07T08:11:59.514Z,983.90
2018-04-07T08:13:06.272Z,983.81
2018-04-07T08:14:12.988Z,983.90
2018-04-07T08:15:19.788Z,983.87
2018-04-07T08:16:26.635Z,983.80
2018-04-07T08:17:33.384Z,983.83
2018-04-07T08:18:40.203Z,983.88
2018-04-07T08:19:46.900Z,983.89
2018-04-07T08:20:53.626Z,983.89
2018-04-07T08:22:00.360Z,983.93
2018-04-07T08:23:07.321Z,983.90
2018-04-07T08:24:14.048Z,983.85
2018-04-07T08:25:20.790Z,983.87
2018-04-07T08:26:27.530Z,983.86
2018-04-07T08:27:34.389Z,983.84
2018-04-07T08:28:41.218Z,983.83
2018-04-07T08:29:47.993Z,983.78
2018-04-07T08:30:54.841Z,983.79
2018-04-07T08:32:01.686Z,983.84
2018-04-07T08:33:08.485Z,983.72
2018-04-07T08:34:15.251Z,983.75
2018-04-07T08:35:22.008Z,983.74
2018-04-07T08:36:28.757Z,983.82
2018-04-07T08:37:35.642Z,983.75
2018-04-07T08:38:42.416Z,983.85
2018-04-07T08:39:49.177Z,983.81
2018-04-07T08:40:55.927Z,983.80
2018-04-07T08:42:02.739Z,983.83
2018-04-07T08:43:09.578Z,983.89
2018-04-07T08:44:16.334Z,983.84
2018-04-07T08:45:23.208Z,983.88
2018-04-07T08:46:29.908Z,983.84
2018-04-07T08:47:36.644Z,983.92
2018-04-07T08:48:43.422Z,983.80
2018-04-07T08:49:50.223Z,983.82
2018-04-07T08:50:56.927Z,983.79
2018-04-07T08:52:03.667Z,983.81
2018-04-07T08:53:10.412Z,983.82
2018-04-07T08:54:17.308Z,983.76
2018-04-07T08:55:24.076Z,983.79
2018-04-07T08:56:30.854Z,983.73
2018-04-07T08:57:37.566Z,983.73
2018-04-07T08:58:44.423Z,983.72
2018-04-07T08:59:51.169Z,983.72
2018-04-07T09:00:58.009Z,983.75
2018-04-07T09:02:04.812Z,983.69
2018-04-07T09:03:11.548Z,983.65
2018-04-07T09:04:18.289Z,983.67
2018-04-07T09:05:25.050Z,983.64
2018-04-07T09:06:31.895Z,983.61
2018-04-07T09:07:38.605Z,983.65
2018-04-07T09:08:45.373Z,983.67
2018-04-07T09:09:52.173Z,983.59
2018-04-07T09:10:58.980Z,983.56
2018-04-07T09:12:05.771Z,983.54
2018-04-07T09:13:12.552Z,983.53
2018-04-07T09:14:19.317Z,983.62
2018-04-07T09:15:26.109Z,983.54
2018-04-07T09:16:32.853Z,983.58
2018-04-07T09:17:39.603Z,983.60
2018-04-07T09:18:46.380Z,983.60
2018-04-07T09:19:53.149Z,983.57
2018-04-07T09:20:59.940Z,983.64
2018-04-07T09:22:06.704Z,983.55
2018-04-07T09:23:13.594Z,983.58
2018-04-07T09:24:20.389Z,983.54
2018-04-07T09:25:27.171Z,983.62
2018-04-07T09:26:34.113Z,983.58
2018-04-07T09:27:41.016Z,983.60
2018-04-07T09:28:47.852Z,983.66
2018-04-07T09:29:54.626Z,983.62
2018-04-07T09:31:01.420Z,983.65
2018-04-07T09:32:08.256Z,983.65
2018-04-07T09:33:15.021Z,983.57
2018-04-07T09:34:21.804Z,983.56
2018-04-07T09:35:28.527Z,983.67
2018-04-07T09:36:35.335Z,983.54
2018-04-07T09:37:42.344Z,983.56
2018-04-07T09:38:49.284Z,983.56
2018-04-07T09:39:56.044Z,983.58
2018-04-07T09:41:02.876Z,983.47
2018-04-07T09:42:09.721Z,983.53
2018-04-07T09:43:16.523Z,983.41
2018-04-07T09:44:23.359Z,983.42
2018-04-07T09:45:30.224Z,983.42
2018-04-07T09:46:37.084Z,983.45
2018-04-07T09:47:44.220Z,983.45
2018-04-07T09:48:50.648Z,983.44
2018-04-07T09:49:57.508Z,983.45
2018-04-07T09:51:04.312Z,983.39
2018-04-07T09:52:11.177Z,983.38
2018-04-07T09:53:17.939Z,983.39
2018-04-07T09:54:24.964Z,983.33
2018-04-07T09:55:31.712Z,983.40
2018-04-07T09:56:38.478Z,983.34
2018-04-07T09:57:45.508Z,983.34
2018-04-07T09:58:52.288Z,983.42
2018-04-07T09:59:59.092Z,983.35
2018-04-07T10:01:05.920Z,983.35
2018-04-07T10:02:12.789Z,983.32
2018-04-07T10:03:19.701Z,983.33
2018-04-07T10:04:26.809Z,983.31
2018-04-07T10:05:33.604Z,983.31
2018-04-07T10:06:40.377Z,983.37
2018-04-07T10:07:47.156Z,983.32
2018-04-07T10:08:53.932Z,983.36
2018-04-07T10:10:00.677Z,983.27
2018-04-07T10:11:07.605Z,983.31
2018-04-07T10:12:14.448Z,983.37
2018-04-07T10:13:21.245Z,983.39
2018-04-07T10:14:28.004Z,983.30
2018-04-07T10:15:34.837Z,983.41
2018-04-07T10:16:41.600Z,983.37
2018-04-07T10:17:48.380Z,983.35
2018-04-07T10:18:55.324Z,983.28
2018-04-07T10:20:02.132Z,983.36
2018-04-07T10:21:09.021Z,983.31
2018-04-07T10:22:15.815Z,983.33
2018-04-07T10:23:22.611Z,983.27
2018-04-07T10:24:29.452Z,983.30
2018-04-07T10:25:36.213Z,983.20
2018-04-07T10:26:43.012Z,983.19
2018-04-07T10:27:49.809Z,983.27
2018-04-07T10:28:56.629Z,983.23
2018-04-07T10:30:03.452Z,983.19
2018-04-07T10:31:10.261Z,983.23
2018-04-07T10:32:17.112Z,983.20
2018-04-07T10:33:23.877Z,983.22
2018-04-07T10:34:30.685Z,983.14
2018-04-07T10:35:37.496Z,983.16
2018-04-07T10:36:44.284Z,983.22
2018-04-07T10:37:51.091Z,983.15
2018-04-07T10:38:57.907Z,983.14
2018-04-07T10:40:04.694Z,983.19
2018-04-07T10:41:11.511Z,983.16
2018-04-07T10:42:18.240Z,983.16
2018-04-07T10:43:24.981Z,983.08
2018-04-07T10:44:31.768Z,983.05
2018-04-07T10:45:38.583Z,983.15
2018-04-07T10:46:45.337Z,983.10
2018-04-07T10:47:52.109Z,983.07
2018-04-07T10:48:58.861Z,983.07
2018-04-07T10:50:05.677Z,983.07
2018-04-07T10:51:12.436Z,983.10
2018-04-07T10:52:19.221Z,983.04
2018-04-07T10:53:26.076Z,983.03
2018-04-07T10:54:33.171Z,983.06
2018-04-07T10:55:39.952Z,982.97
2018-04-07T10:56:46.836Z,982.95
2018-04-07T10:57:53.744Z,982.99
2018-04-07T10:59:00.521Z,983.00
2018-04-07T11:00:07.268Z,982.98
2018-04-07T11:01:14.140Z,982.98
2018-04-07T11:02:21.961Z,982.98
2018-04-07T11:03:27.700Z,982.96
2018-04-07T11:04:34.881Z,982.93
2018-04-07T11:05:41.692Z,983.00
2018-04-07T11:06:48.468Z,982.92
2018-04-07T11:07:55.325Z,982.96
2018-04-07T11:09:02.132Z,982.99
2018-04-07T11:10:09.056Z,982.88
2018-04-07T11:11:15.927Z,982.96
2018-04-07T11:12:22.844Z,982.92
2018-04-07T11:13:29.706Z,982.94
2018-04-07T11:14:36.701Z,982.91
2018-04-07T11:15:43.563Z,982.92
2018-04-07T11:16:50.387Z,982.94
2018-04-07T11:17:57.169Z,982.90
2018-04-07T11:19:04.031Z,982.88
2018-04-07T11:20:10.827Z,982.92
2018-04-07T11:21:17.678Z,982.92
2018-04-07T11:22:24.436Z,982.92
2018-04-07T11:23:31.211Z,982.88
2018-04-07T11:24:37.955Z,982.98
2018-04-07T11:25:44.757Z,982.90
2018-04-07T11:26:51.467Z,982.87
2018-04-07T11:27:58.269Z,982.90
2018-04-07T11:29:05.092Z,982.88
2018-04-07T11:30:11.872Z,982.90
2018-04-07T11:31:18.609Z,982.78
2018-04-07T11:32:25.361Z,982.82
2018-04-07T11:33:32.141Z,982.85
2018-04-07T11:34:38.940Z,982.85
2018-04-07T11:35:45.679Z,982.80
2018-04-07T11:36:52.466Z,982.78
2018-04-07T11:37:59.220Z,982.70
2018-04-07T11:39:06.143Z,982.66
2018-04-07T11:40:12.958Z,982.65
2018-04-07T11:41:19.757Z,982.64
2018-04-07T11:42:26.540Z,982.67
2018-04-07T11:43:33.316Z,982.69
2018-04-07T11:44:40.473Z,982.71
2018-04-07T11:45:47.301Z,982.73
2018-04-07T11:46:54.028Z,982.73
2018-04-07T11:48:00.768Z,982.78
2018-04-07T11:49:07.610Z,982.72
2018-04-07T11:50:14.365Z,982.71
2018-04-07T11:51:21.566Z,982.68
2018-04-07T11:52:28.423Z,982.65
2018-04-07T11:53:35.309Z,982.67
2018-04-07T11:54:42.327Z,982.66
2018-04-07T11:55:49.112Z,982.65
2018-04-07T11:56:55.931Z,982.61
2018-04-07T11:58:02.681Z,982.67
2018-04-07T11:59:09.561Z,982.57
2018-04-07T12:00:16.332Z,982.52
2018-04-07T12:01:23.089Z,982.46
2018-04-07T12:02:29.878Z,982.46
2018-04-07T12:03:36.688Z,982.43
2018-04-07T12:04:43.433Z,982.37
2018-04-07T12:05:50.228Z,982.41
2018-04-07T12:06:57.111Z,982.45
2018-04-07T12:08:03.915Z,982.47
2018-04-07T12:09:10.855Z,982.47
2018-04-07T12:10:17.641Z,982.43
2018-04-07T12:11:24.478Z,982.40
2018-04-07T12:12:31.273Z,982.47
2018-04-07T12:13:38.029Z,982.55
2018-04-07T12:14:44.828Z,982.51
2018-04-07T12:15:51.724Z,982.48
2018-04-07T12:16:58.473Z,982.48
2018-04-07T12:18:05.263Z,982.42
2018-04-07T12:19:11.996Z,982.44
2018-04-07T12:20:18.837Z,982.54
2018-04-07T12:21:25.700Z,982.46
2018-04-07T12:22:32.478Z,982.45
2018-04-07T12:23:39.237Z,982.42
2018-04-07T12:24:45.969Z,982.38
2018-04-07T12:25:52.749Z,982.37
2018-04-07T12:26:59.608Z,982.33
2018-04-07T12:28:06.348Z,982.25
2018-04-07T12:29:13.133Z,982.27
2018-04-07T12:30:19.961Z,982.30
2018-04-07T12:31:26.809Z,982.28
2018-04-07T12:32:33.643Z,982.25
2018-04-07T12:33:40.500Z,982.25
2018-04-07T12:34:47.551Z,982.24
2018-04-07T12:35:54.313Z,982.28
2018-04-07T12:37:01.161Z,982.24
2018-04-07T12:38:08.192Z,982.25
2018-04-07T12:39:14.949Z,982.29
2018-04-07T12:40:21.779Z,982.27
2018-04-07T12:41:28.639Z,982.25
2018-04-07T12:42:35.364Z,982.27
2018-04-07T12:43:42.156Z,982.27
2018-04-07T12:44:49.220Z,982.27
2018-04-07T12:45:55.971Z,982.32
2018-04-07T12:47:02.828Z,982.24
2018-04-07T12:48:09.613Z,982.30
2018-04-07T12:49:16.359Z,982.33
2018-04-07T12:50:23.100Z,982.21
2018-04-07T12:51:29.912Z,982.33
2018-04-07T12:52:36.832Z,982.26
2018-04-07T12:53:43.668Z,982.30
2018-04-07T12:54:50.437Z,982.22
2018-04-07T12:55:57.225Z,982.29
2018-04-07T12:57:05.061Z,982.22
2018-04-07T12:58:11.772Z,982.19
2018-04-07T12:59:17.541Z,982.23
2018-04-07T13:00:24.343Z,982.12
2018-04-07T13:01:31.198Z,982.10
2018-04-07T13:02:37.971Z,982.11
2018-04-07T13:03:44.801Z,982.18
2018-04-07T13:04:51.648Z,982.15
2018-04-07T13:05:58.372Z,982.12
2018-04-07T13:07:05.226Z,982.13
2018-04-07T13:08:12.277Z,982.08
2018-04-07T13:09:19.000Z,982.10
2018-04-07T13:10:25.738Z,982.07
2018-04-07T13:11:32.520Z,982.02
2018-04-07T13:12:39.334Z,982.01
2018-04-07T13:13:46.123Z,981.99
2018-04-07T13:14:52.961Z,982.03
2018-04-07T13:15:59.693Z,982.05
2018-04-07T13:17:06.436Z,981.96
2018-04-07T13:18:13.416Z,982.00
2018-04-07T13:19:20.167Z,981.97
2018-04-07T13:20:26.968Z,981.93
2018-04-07T13:21:33.816Z,981.98
2018-04-07T13:22:40.584Z,981.90
2018-04-07T13:23:47.460Z,981.97
2018-04-07T13:24:54.245Z,981.89
2018-04-07T13:26:01.381Z,981.92
2018-04-07T13:27:08.148Z,981.90
2018-04-07T13:28:14.957Z,981.94
2018-04-07T13:29:21.819Z,981.92
2018-04-07T13:30:28.569Z,981.89
2018-04-07T13:31:35.465Z,981.90
2018-04-07T13:32:42.312Z,981.84
2018-04-07T13:33:49.057Z,981.87
2018-04-07T13:34:55.884Z,981.82
2018-04-07T13:36:02.753Z,981.88
2018-04-07T13:37:09.516Z,981.91
2018-04-07T13:38:16.312Z,981.92
2018-04-07T13:39:23.064Z,981.85
2018-04-07T13:40:29.837Z,981.85
2018-04-07T13:41:36.617Z,981.90
2018-04-07T13:42:43.389Z,981.87
2018-04-07T13:43:50.165Z,981.85
2018-04-07T13:44:56.944Z,981.83
2018-04-07T13:46:03.692Z,981.78
2018-04-07T13:47:10.548Z,981.85
2018-04-07T13:48:17.419Z,981.77
2018-04-07T13:49:24.192Z,981.78
2018-04-07T13:50:31.052Z,981.76
2018-04-07T13:51:38.245Z,981.68
2018-04-07T13:52:44.569Z,981.64